Terminal Aerodrome Forecast
Issued by NWS Omaha/Valley, NE

Home | Current Version | Previous Version | Text Only | Print | Product List | Glossary On
Versions: 1 2 3 4 5 6 7 8 9 10 11 12 13 14 15 16 17 18 19 20 21 22
000
FTUS43 KOAX 142106 AAA
TAFOFK
TAF AMD
KOFK 142106Z 1421/1518 32010KT P6SM VCSH BKN035 OVC100
      TEMPO 1421/1423 5SM -RASN BKN020 OVC035
     FM150100 31009KT P6SM SCT020 BKN035
     FM150800 28006KT P6SM BKN035
     FM151200 25007KT P6SM SCT070=

USA.gov is the U.S. government's official web portal to all federal, state and local government web resources and services.